23:51
Airports
Links
Donate
Help keep this website running!
PayPal
Bitcoin
METAR
KEWR 192251Z 22012G19KT 10SM FEW250 19/06 A3009 RMK AO2 SLP187 T01940056
Current Weather Conditions at KEWR
VFR 22:51:00 19-10-17
Automated station
Altimeter:30.09 hg
Temp:19.4°c 66°f
Dew point:5.6°c 41°f
Wind:12 knots, 13.8 mph, 6 m/s, from 220°
Visibility:10.0 statute miles
25000(FEW) A few
Past METAR reports
VFR 21:51:00 19-10-17
Automated station
Altimeter:30.08 hg
Temp:20.0°c 68°f
Dew point:5.6°c 41°f
Wind:10 knots, 11.5 mph, 5 m/s, from 210°
Visibility:10.0 statute miles
25000(FEW) A few
KEWR 192151Z 21010KT 10SM FEW250 20/06 A3008 RMK AO2 SLP184 T02000056
VFR 20:51:00 19-10-17
Automated station
Altimeter:30.09 hg
Temp:21.7°c 70°f
Dew point:4.4°c 39°f
Wind:11 knots, 12.7 mph, 6 m/s, from 230°
Visibility:10.0 statute miles
25000(FEW) A few
KEWR 192051Z 23011KT 10SM FEW250 22/04 A3009 RMK AO2 SLP187 T02170044 56024
VFR 19:51:00 19-10-17
Automated station
Altimeter:30.11 hg
Temp:22.8°c 72°f
Dew point:3.9°c 37°f
Wind:11 knots, 12.7 mph, 6 m/s, from 210°
Visibility:10.0 statute miles
25000(FEW) A few
KEWR 191951Z 21011KT 10SM FEW250 23/04 A3011 RMK AO2 SLP194 T02280039
VFR 18:51:00 19-10-17
Automated station
Altimeter:30.13 hg
Temp:22.8°c 72°f
Dew point:3.3°c 37°f
Wind:10 knots, 11.5 mph, 5 m/s, from 220°
Visibility:10.0 statute miles
25000(FEW) A few
KEWR 191851Z 22010KT 10SM FEW250 23/03 A3013 RMK AO2 SLP201 T02280033
TAF
KEWR 192340Z 2000/2106 22008KT P6SM FEW250 FM200300 24007KT P6SM FEW250 FM200900 30007KT P6SM FEW250 FM201400 31010G17KT P6SM FEW250 FM202100 30008KT P6SM FEW250 FM210100 31005KT P6SM FEW250
Forecast at KEWR
00:00 20-10-17 to 03:00 20-10-17
Wind:8 Knots from 220°
Visibility:6.21 statute miles
25000FEW A few
FM 03:00 20-10-17 to 09:00 20-10-17
Wind:7 Knots from 240°
Visibility:6.21 statute miles
25000FEW A few
FM 09:00 20-10-17 to 14:00 20-10-17
Wind:7 Knots from 300°
Visibility:6.21 statute miles
25000FEW A few
FM 14:00 20-10-17 to 21:00 20-10-17
Wind:10 Knots from 310°
Visibility:6.21 statute miles
25000FEW A few
FM 21:00 20-10-17 to 01:00 21-10-17
Wind:8 Knots from 300°
Visibility:6.21 statute miles
25000FEW A few
FM 01:00 21-10-17 to 06:00 21-10-17
Wind:5 Knots from 310°
Visibility:6.21 statute miles
25000FEW A few